Etusivu
METAR-TAF:

METAR-TAF

Lentoasemat :

Mannheim, Saksa

Leveyspiiri: 49-28-21N, Pituuspiiri: 008-30-56E, korkeus merenpinnasta: 100 m

Tämänhetkinen sää

Tämä raportti tehtiin 5 tuntia ja 59 minuuttia sitten, kello 18.50 UTC
Tuuli 2 kn eri suunnista
Lämpötila 5°C
Kosteus 81%
Ilmanpaine 1022 hPa
Näkyvyys 10 km tai enemmän
ei pilviä alle 1500 m:ssä eikä cumulonimbus-pilviä

METAR: EDFM 191850Z VRB02KT CAVOK 05/02 Q1022

Aika: 01:49 (00:49 UTC)

Sääennuste

Tämä raportti tehtiin 7 tuntia ja 49 minuuttia sitten, kello 17.00 UTC
Ennuste voimassa 19. päivästä klo 18 UTC - 19. päivään klo 21 UTC
Tuuli 5 kn etelästä
Näkyvyys 10 km tai enemmän
ei pilviä alle 1500 m:ssä eikä cumulonimbus-pilviä

TAF: EDFM 191700Z 1918/1921 19005KT CAVOK

Säähavainnot ja -ennusteet yli 4000 lentoasemalta (METAR- ja TAF-raportit).

Käytössä olevat sääasemat on merkitty karttaan keltaisilla ja punaisilla pisteillä.

Aseta hiiri pisteen päälle nähdäksesi sääaseman nimen.

Klikkaa sitten nähdäksesi säähavainnot ja -ennusteet.

Kartan vaihtaminen: klikkaa mustalla rastilla varustettuja vihreitä pisteitä, niin voit zoomata sisään; viivalla varustettua vihreää pistettä, niin voit zoomata ulos tai vihreitä nuolia, niin pääset viereisille kartoille.


METAR-TAF: